sensor_id;sensor_type;location;lat;lon;timestamp;P1;durP1;ratioP1;P2;durP2;ratioP2
67227;SDS011;54139;42.616;23.748;2023-03-04T00:00:23;18.40;;;16.48;;
67227;SDS011;54139;42.616;23.748;2023-03-04T00:02:48;19.33;;;17.25;;
67227;SDS011;54139;42.616;23.748;2023-03-04T00:05:13;20.45;;;17.38;;
67227;SDS011;54139;42.616;23.748;2023-03-04T00:07:39;22.00;;;16.55;;
67227;SDS011;54139;42.616;23.748;2023-03-04T00:10:05;20.20;;;16.52;;
67227;SDS011;54139;42.616;23.748;2023-03-04T00:12:30;21.58;;;17.42;;
67227;SDS011;54139;42.616;23.748;2023-03-04T00:14:56;24.05;;;19.40;;
67227;SDS011;54139;42.616;23.748;2023-03-04T00:17:21;22.40;;;17.27;;
67227;SDS011;54139;42.616;23.748;2023-03-04T00:19:47;19.00;;;16.13;;
67227;SDS011;54139;42.616;23.748;2023-03-04T00:22:12;21.45;;;15.00;;
67227;SDS011;54139;42.616;23.748;2023-03-04T00:24:38;24.48;;;16.08;;
67227;SDS011;54139;42.616;23.748;2023-03-04T00:27:03;18.15;;;14.90;;
67227;SDS011;54139;42.616;23.748;2023-03-04T00:29:28;18.65;;;15.35;;
67227;SDS011;54139;42.616;23.748;2023-03-04T00:31:54;18.20;;;15.45;;
67227;SDS011;54139;42.616;23.748;2023-03-04T00:34:19;18.23;;;13.32;;
67227;SDS011;54139;42.616;23.748;2023-03-04T00:36:45;19.40;;;14.43;;
67227;SDS011;54139;42.616;23.748;2023-03-04T00:39:11;17.27;;;13.15;;
67227;SDS011;54139;42.616;23.748;2023-03-04T00:41:37;20.05;;;15.30;;
67227;SDS011;54139;42.616;23.748;2023-03-04T00:44:03;18.70;;;15.77;;
67227;SDS011;54139;42.616;23.748;2023-03-04T00:46:29;18.10;;;14.30;;
67227;SDS011;54139;42.616;23.748;2023-03-04T00:48:55;18.50;;;14.65;;
67227;SDS011;54139;42.616;23.748;2023-03-04T00:51:20;16.40;;;13.38;;
67227;SDS011;54139;42.616;23.748;2023-03-04T00:53:45;16.00;;;13.82;;
67227;SDS011;54139;42.616;23.748;2023-03-04T00:56:11;15.93;;;14.23;;
67227;SDS011;54139;42.616;23.748;2023-03-04T00:58:37;15.82;;;14.13;;
67227;SDS011;54139;42.616;23.748;2023-03-04T01:01:04;17.27;;;13.95;;
67227;SDS011;54139;42.616;23.748;2023-03-04T01:03:32;18.70;;;15.35;;
67227;SDS011;54139;42.616;23.748;2023-03-04T01:05:58;18.23;;;16.27;;
67227;SDS011;54139;42.616;23.748;2023-03-04T01:08:24;20.48;;;16.73;;
67227;SDS011;54139;42.616;23.748;2023-03-04T01:10:49;20.17;;;16.60;;
67227;SDS011;54139;42.616;23.748;2023-03-04T01:13:15;22.60;;;18.17;;
67227;SDS011;54139;42.616;23.748;2023-03-04T01:15:41;24.88;;;20.58;;
67227;SDS011;54139;42.616;23.748;2023-03-04T01:18:06;23.85;;;19.02;;
67227;SDS011;54139;42.616;23.748;2023-03-04T01:20:32;22.48;;;17.98;;
67227;SDS011;54139;42.616;23.748;2023-03-04T01:22:57;28.50;;;20.85;;
67227;SDS011;54139;42.616;23.748;2023-03-04T01:25:22;26.38;;;21.67;;
67227;SDS011;54139;42.616;23.748;2023-03-04T01:27:48;28.45;;;22.73;;
67227;SDS011;54139;42.616;23.748;2023-03-04T01:30:13;25.30;;;19.98;;
67227;SDS011;54139;42.616;23.748;2023-03-04T01:32:39;27.00;;;21.48;;
67227;SDS011;54139;42.616;23.748;2023-03-04T01:35:04;31.70;;;25.63;;
67227;SDS011;54139;42.616;23.748;2023-03-04T01:37:30;29.05;;;22.98;;
67227;SDS011;54139;42.616;23.748;2023-03-04T01:39:55;31.20;;;23.38;;
67227;SDS011;54139;42.616;23.748;2023-03-04T01:42:22;26.23;;;20.40;;
67227;SDS011;54139;42.616;23.748;2023-03-04T01:44:48;25.60;;;20.77;;
67227;SDS011;54139;42.616;23.748;2023-03-04T01:47:15;27.77;;;22.73;;
67227;SDS011;54139;42.616;23.748;2023-03-04T01:49:41;25.30;;;21.17;;
67227;SDS011;54139;42.616;23.748;2023-03-04T01:52:11;27.50;;;22.55;;
67227;SDS011;54139;42.616;23.748;2023-03-04T01:54:38;27.85;;;20.85;;
67227;SDS011;54139;42.616;23.748;2023-03-04T01:57:17;24.40;;;21.23;;
67227;SDS011;54139;42.616;23.748;2023-03-04T01:59:46;29.58;;;22.98;;
67227;SDS011;54139;42.616;23.748;2023-03-04T02:02:31;26.45;;;19.85;;
67227;SDS011;54139;42.616;23.748;2023-03-04T02:04:56;29.65;;;22.88;;
67227;SDS011;54139;42.616;23.748;2023-03-04T02:07:22;31.08;;;23.60;;
67227;SDS011;54139;42.616;23.748;2023-03-04T02:09:47;29.90;;;22.38;;
67227;SDS011;54139;42.616;23.748;2023-03-04T02:12:13;30.15;;;22.63;;
67227;SDS011;54139;42.616;23.748;2023-03-04T02:14:38;27.00;;;19.73;;
67227;SDS011;54139;42.616;23.748;2023-03-04T02:17:08;28.27;;;22.67;;
67227;SDS011;54139;42.616;23.748;2023-03-04T02:19:41;24.42;;;19.98;;
67227;SDS011;54139;42.616;23.748;2023-03-04T02:22:21;30.05;;;21.40;;
67227;SDS011;54139;42.616;23.748;2023-03-04T02:24:47;28.27;;;22.25;;
67227;SDS011;54139;42.616;23.748;2023-03-04T02:27:16;27.20;;;20.17;;
67227;SDS011;54139;42.616;23.748;2023-03-04T02:29:42;28.90;;;22.23;;
67227;SDS011;54139;42.616;23.748;2023-03-04T02:32:09;28.38;;;20.88;;
67227;SDS011;54139;42.616;23.748;2023-03-04T02:34:36;28.52;;;21.45;;
67227;SDS011;54139;42.616;23.748;2023-03-04T02:37:02;33.22;;;23.65;;
67227;SDS011;54139;42.616;23.748;2023-03-04T02:42:02;26.27;;;20.45;;
67227;SDS011;54139;42.616;23.748;2023-03-04T02:44:28;26.52;;;21.00;;
67227;SDS011;54139;42.616;23.748;2023-03-04T02:46:56;24.92;;;20.77;;
67227;SDS011;54139;42.616;23.748;2023-03-04T02:49:23;27.55;;;19.38;;
67227;SDS011;54139;42.616;23.748;2023-03-04T02:51:50;29.48;;;20.92;;
67227;SDS011;54139;42.616;23.748;2023-03-04T02:54:21;27.42;;;20.02;;
67227;SDS011;54139;42.616;23.748;2023-03-04T02:56:48;25.08;;;19.92;;
67227;SDS011;54139;42.616;23.748;2023-03-04T02:59:17;26.98;;;20.15;;
67227;SDS011;54139;42.616;23.748;2023-03-04T03:01:43;26.58;;;20.15;;
67227;SDS011;54139;42.616;23.748;2023-03-04T03:04:09;25.45;;;19.95;;
67227;SDS011;54139;42.616;23.748;2023-03-04T03:06:34;26.88;;;18.25;;
67227;SDS011;54139;42.616;23.748;2023-03-04T03:09:00;26.52;;;19.70;;
67227;SDS011;54139;42.616;23.748;2023-03-04T03:11:25;23.38;;;18.02;;
67227;SDS011;54139;42.616;23.748;2023-03-04T03:13:50;22.65;;;18.35;;
67227;SDS011;54139;42.616;23.748;2023-03-04T03:16:16;27.95;;;19.52;;
67227;SDS011;54139;42.616;23.748;2023-03-04T03:18:41;27.90;;;20.08;;
67227;SDS011;54139;42.616;23.748;2023-03-04T03:21:07;42.67;;;32.70;;
67227;SDS011;54139;42.616;23.748;2023-03-04T03:23:33;66.93;;;48.90;;
67227;SDS011;54139;42.616;23.748;2023-03-04T03:25:59;35.50;;;28.15;;
67227;SDS011;54139;42.616;23.748;2023-03-04T03:28:24;27.60;;;22.60;;
67227;SDS011;54139;42.616;23.748;2023-03-04T03:30:49;26.17;;;18.80;;
67227;SDS011;54139;42.616;23.748;2023-03-04T03:33:15;24.65;;;19.13;;
67227;SDS011;54139;42.616;23.748;2023-03-04T03:35:40;24.70;;;18.35;;
67227;SDS011;54139;42.616;23.748;2023-03-04T03:38:06;22.42;;;18.45;;
67227;SDS011;54139;42.616;23.748;2023-03-04T03:40:31;24.92;;;18.48;;
67227;SDS011;54139;42.616;23.748;2023-03-04T03:42:57;22.98;;;18.35;;
67227;SDS011;54139;42.616;23.748;2023-03-04T03:45:22;24.08;;;19.88;;
67227;SDS011;54139;42.616;23.748;2023-03-04T03:47:47;30.25;;;20.27;;
67227;SDS011;54139;42.616;23.748;2023-03-04T03:50:13;28.38;;;20.38;;
67227;SDS011;54139;42.616;23.748;2023-03-04T03:52:38;23.98;;;21.40;;
67227;SDS011;54139;42.616;23.748;2023-03-04T03:55:04;27.48;;;21.00;;
67227;SDS011;54139;42.616;23.748;2023-03-04T03:57:29;25.65;;;20.25;;
67227;SDS011;54139;42.616;23.748;2023-03-04T03:59:55;24.45;;;20.38;;
67227;SDS011;54139;42.616;23.748;2023-03-04T04:02:20;28.50;;;22.08;;
67227;SDS011;54139;42.616;23.748;2023-03-04T04:04:46;31.15;;;22.55;;
67227;SDS011;54139;42.616;23.748;2023-03-04T04:07:12;32.85;;;23.83;;
67227;SDS011;54139;42.616;23.748;2023-03-04T04:09:37;31.00;;;24.58;;
67227;SDS011;54139;42.616;23.748;2023-03-04T04:12:04;27.88;;;22.70;;
67227;SDS011;54139;42.616;23.748;2023-03-04T04:14:30;31.13;;;22.95;;
67227;SDS011;54139;42.616;23.748;2023-03-04T04:16:55;32.92;;;24.17;;
67227;SDS011;54139;42.616;23.748;2023-03-04T04:19:21;35.75;;;25.42;;
67227;SDS011;54139;42.616;23.748;2023-03-04T04:21:46;34.92;;;25.83;;
67227;SDS011;54139;42.616;23.748;2023-03-04T04:24:12;36.88;;;27.65;;
67227;SDS011;54139;42.616;23.748;2023-03-04T04:26:37;35.80;;;25.63;;
67227;SDS011;54139;42.616;23.748;2023-03-04T04:29:03;35.67;;;26.27;;
67227;SDS011;54139;42.616;23.748;2023-03-04T04:31:28;31.27;;;23.67;;
67227;SDS011;54139;42.616;23.748;2023-03-04T04:33:55;32.70;;;23.65;;
67227;SDS011;54139;42.616;23.748;2023-03-04T04:36:20;33.70;;;25.20;;
67227;SDS011;54139;42.616;23.748;2023-03-04T04:38:46;37.85;;;27.00;;
67227;SDS011;54139;42.616;23.748;2023-03-04T04:41:17;33.55;;;24.92;;
67227;SDS011;54139;42.616;23.748;2023-03-04T04:43:46;41.55;;;29.58;;
67227;SDS011;54139;42.616;23.748;2023-03-04T04:46:12;33.60;;;24.38;;
67227;SDS011;54139;42.616;23.748;2023-03-04T04:48:38;36.03;;;27.10;;
67227;SDS011;54139;42.616;23.748;2023-03-04T04:51:04;36.30;;;25.95;;
67227;SDS011;54139;42.616;23.748;2023-03-04T04:53:29;36.92;;;28.40;;
67227;SDS011;54139;42.616;23.748;2023-03-04T04:55:55;37.80;;;29.85;;
67227;SDS011;54139;42.616;23.748;2023-03-04T04:58:20;41.85;;;28.02;;
67227;SDS011;54139;42.616;23.748;2023-03-04T05:00:45;37.20;;;28.65;;
67227;SDS011;54139;42.616;23.748;2023-03-04T05:03:11;35.70;;;27.35;;
67227;SDS011;54139;42.616;23.748;2023-03-04T05:05:36;40.88;;;28.38;;
67227;SDS011;54139;42.616;23.748;2023-03-04T05:08:02;37.03;;;27.77;;
67227;SDS011;54139;42.616;23.748;2023-03-04T05:10:27;41.47;;;28.02;;
67227;SDS011;54139;42.616;23.748;2023-03-04T05:12:52;37.22;;;27.77;;
67227;SDS011;54139;42.616;23.748;2023-03-04T05:15:18;40.63;;;27.70;;
67227;SDS011;54139;42.616;23.748;2023-03-04T05:17:43;39.95;;;29.90;;
67227;SDS011;54139;42.616;23.748;2023-03-04T05:20:09;45.53;;;29.45;;
67227;SDS011;54139;42.616;23.748;2023-03-04T05:22:35;47.03;;;32.35;;
67227;SDS011;54139;42.616;23.748;2023-03-04T05:25:00;40.38;;;27.90;;
67227;SDS011;54139;42.616;23.748;2023-03-04T05:27:26;43.80;;;29.70;;
67227;SDS011;54139;42.616;23.748;2023-03-04T05:29:51;42.33;;;27.50;;
67227;SDS011;54139;42.616;23.748;2023-03-04T05:32:18;42.22;;;28.92;;
67227;SDS011;54139;42.616;23.748;2023-03-04T05:34:43;38.60;;;27.92;;
67227;SDS011;54139;42.616;23.748;2023-03-04T05:37:08;39.92;;;27.98;;
67227;SDS011;54139;42.616;23.748;2023-03-04T05:39:34;45.17;;;30.33;;
67227;SDS011;54139;42.616;23.748;2023-03-04T05:41:59;46.17;;;30.42;;
67227;SDS011;54139;42.616;23.748;2023-03-04T05:44:25;41.10;;;29.10;;
67227;SDS011;54139;42.616;23.748;2023-03-04T05:46:50;44.17;;;29.27;;
67227;SDS011;54139;42.616;23.748;2023-03-04T05:49:16;44.35;;;29.30;;
67227;SDS011;54139;42.616;23.748;2023-03-04T05:51:41;45.03;;;29.65;;
67227;SDS011;54139;42.616;23.748;2023-03-04T05:54:06;43.08;;;28.98;;
67227;SDS011;54139;42.616;23.748;2023-03-04T05:56:32;46.38;;;30.55;;
67227;SDS011;54139;42.616;23.748;2023-03-04T05:58:58;48.30;;;31.88;;
67227;SDS011;54139;42.616;23.748;2023-03-04T06:01:23;46.58;;;30.80;;
67227;SDS011;54139;42.616;23.748;2023-03-04T06:03:49;47.15;;;31.85;;
67227;SDS011;54139;42.616;23.748;2023-03-04T06:06:15;45.08;;;31.25;;
67227;SDS011;54139;42.616;23.748;2023-03-04T06:11:16;50.17;;;32.03;;
67227;SDS011;54139;42.616;23.748;2023-03-04T06:13:41;50.28;;;32.65;;
67227;SDS011;54139;42.616;23.748;2023-03-04T06:16:08;48.88;;;33.45;;
67227;SDS011;54139;42.616;23.748;2023-03-04T06:18:33;46.30;;;31.77;;
67227;SDS011;54139;42.616;23.748;2023-03-04T06:21:00;48.55;;;32.10;;
67227;SDS011;54139;42.616;23.748;2023-03-04T06:23:27;47.92;;;31.20;;
67227;SDS011;54139;42.616;23.748;2023-03-04T06:25:54;44.88;;;30.63;;
67227;SDS011;54139;42.616;23.748;2023-03-04T06:28:21;41.47;;;29.98;;
67227;SDS011;54139;42.616;23.748;2023-03-04T06:30:47;49.47;;;31.05;;
67227;SDS011;54139;42.616;23.748;2023-03-04T06:33:17;48.42;;;32.92;;
67227;SDS011;54139;42.616;23.748;2023-03-04T06:35:43;44.10;;;31.55;;
67227;SDS011;54139;42.616;23.748;2023-03-04T06:38:09;39.95;;;29.55;;
67227;SDS011;54139;42.616;23.748;2023-03-04T06:40:35;43.10;;;30.63;;
67227;SDS011;54139;42.616;23.748;2023-03-04T06:43:01;42.45;;;29.25;;
67227;SDS011;54139;42.616;23.748;2023-03-04T06:45:27;45.17;;;29.65;;
67227;SDS011;54139;42.616;23.748;2023-03-04T06:47:52;41.08;;;29.13;;
67227;SDS011;54139;42.616;23.748;2023-03-04T06:50:18;40.10;;;28.17;;
67227;SDS011;54139;42.616;23.748;2023-03-04T06:52:44;41.15;;;30.75;;
67227;SDS011;54139;42.616;23.748;2023-03-04T06:55:13;36.85;;;26.70;;
67227;SDS011;54139;42.616;23.748;2023-03-04T06:57:39;40.78;;;28.80;;
67227;SDS011;54139;42.616;23.748;2023-03-04T07:00:05;34.28;;;23.45;;
67227;SDS011;54139;42.616;23.748;2023-03-04T07:02:31;28.63;;;22.95;;
67227;SDS011;54139;42.616;23.748;2023-03-04T07:04:57;32.75;;;23.77;;
67227;SDS011;54139;42.616;23.748;2023-03-04T07:07:23;30.60;;;22.25;;
67227;SDS011;54139;42.616;23.748;2023-03-04T07:09:50;30.17;;;22.45;;
67227;SDS011;54139;42.616;23.748;2023-03-04T07:12:15;31.40;;;22.55;;
67227;SDS011;54139;42.616;23.748;2023-03-04T07:17:16;30.23;;;21.55;;
67227;SDS011;54139;42.616;23.748;2023-03-04T07:19:41;28.73;;;21.27;;
67227;SDS011;54139;42.616;23.748;2023-03-04T07:22:08;27.48;;;21.95;;
67227;SDS011;54139;42.616;23.748;2023-03-04T07:24:34;28.20;;;20.73;;
67227;SDS011;54139;42.616;23.748;2023-03-04T07:27:00;26.60;;;19.95;;
67227;SDS011;54139;42.616;23.748;2023-03-04T07:29:26;27.00;;;19.52;;
67227;SDS011;54139;42.616;23.748;2023-03-04T07:31:51;23.98;;;17.17;;
67227;SDS011;54139;42.616;23.748;2023-03-04T07:34:17;20.80;;;16.55;;
67227;SDS011;54139;42.616;23.748;2023-03-04T07:36:43;18.85;;;15.38;;
67227;SDS011;54139;42.616;23.748;2023-03-04T07:39:09;18.10;;;15.32;;
67227;SDS011;54139;42.616;23.748;2023-03-04T07:41:37;19.65;;;15.65;;
67227;SDS011;54139;42.616;23.748;2023-03-04T07:44:06;17.55;;;14.52;;
67227;SDS011;54139;42.616;23.748;2023-03-04T07:46:32;19.45;;;16.13;;
67227;SDS011;54139;42.616;23.748;2023-03-04T07:48:58;20.33;;;15.90;;
67227;SDS011;54139;42.616;23.748;2023-03-04T07:51:24;21.42;;;15.73;;
67227;SDS011;54139;42.616;23.748;2023-03-04T07:53:53;27.77;;;18.00;;
67227;SDS011;54139;42.616;23.748;2023-03-04T07:56:24;20.42;;;16.90;;
67227;SDS011;54139;42.616;23.748;2023-03-04T07:58:51;24.25;;;18.48;;
67227;SDS011;54139;42.616;23.748;2023-03-04T08:01:19;22.75;;;17.48;;
67227;SDS011;54139;42.616;23.748;2023-03-04T08:03:46;27.90;;;21.10;;
67227;SDS011;54139;42.616;23.748;2023-03-04T08:06:13;26.55;;;19.70;;
67227;SDS011;54139;42.616;23.748;2023-03-04T08:08:40;26.55;;;19.75;;
67227;SDS011;54139;42.616;23.748;2023-03-04T08:11:10;27.52;;;20.40;;
67227;SDS011;54139;42.616;23.748;2023-03-04T08:13:40;23.80;;;18.70;;
67227;SDS011;54139;42.616;23.748;2023-03-04T08:16:06;23.67;;;19.15;;
67227;SDS011;54139;42.616;23.748;2023-03-04T08:18:32;28.75;;;21.63;;
67227;SDS011;54139;42.616;23.748;2023-03-04T08:20:58;25.30;;;20.48;;
67227;SDS011;54139;42.616;23.748;2023-03-04T08:23:24;21.92;;;17.85;;
67227;SDS011;54139;42.616;23.748;2023-03-04T08:25:49;25.10;;;17.98;;
67227;SDS011;54139;42.616;23.748;2023-03-04T08:28:16;18.25;;;15.60;;
67227;SDS011;54139;42.616;23.748;2023-03-04T08:30:42;21.60;;;17.20;;
67227;SDS011;54139;42.616;23.748;2023-03-04T08:33:08;18.92;;;16.90;;
67227;SDS011;54139;42.616;23.748;2023-03-04T08:35:38;19.27;;;15.90;;
67227;SDS011;54139;42.616;23.748;2023-03-04T08:38:04;22.45;;;15.00;;
67227;SDS011;54139;42.616;23.748;2023-03-04T08:40:30;25.52;;;17.65;;
67227;SDS011;54139;42.616;23.748;2023-03-04T08:42:55;13.10;;;11.73;;
67227;SDS011;54139;42.616;23.748;2023-03-04T08:45:21;13.93;;;11.32;;
67227;SDS011;54139;42.616;23.748;2023-03-04T08:47:47;15.05;;;11.57;;
67227;SDS011;54139;42.616;23.748;2023-03-04T08:50:12;18.23;;;13.10;;
67227;SDS011;54139;42.616;23.748;2023-03-04T08:52:38;16.13;;;14.45;;
67227;SDS011;54139;42.616;23.748;2023-03-04T08:55:03;20.20;;;15.95;;
67227;SDS011;54139;42.616;23.748;2023-03-04T08:57:29;20.08;;;15.32;;
67227;SDS011;54139;42.616;23.748;2023-03-04T08:59:55;21.80;;;14.90;;
67227;SDS011;54139;42.616;23.748;2023-03-04T09:02:20;23.17;;;16.00;;
67227;SDS011;54139;42.616;23.748;2023-03-04T09:04:45;18.60;;;15.55;;
67227;SDS011;54139;42.616;23.748;2023-03-04T09:07:11;21.58;;;16.10;;
67227;SDS011;54139;42.616;23.748;2023-03-04T09:09:38;16.52;;;13.35;;
67227;SDS011;54139;42.616;23.748;2023-03-04T09:12:03;17.33;;;14.82;;
67227;SDS011;54139;42.616;23.748;2023-03-04T09:14:29;17.10;;;14.20;;
67227;SDS011;54139;42.616;23.748;2023-03-04T09:16:54;15.27;;;13.50;;
67227;SDS011;54139;42.616;23.748;2023-03-04T09:19:20;22.85;;;15.05;;
67227;SDS011;54139;42.616;23.748;2023-03-04T09:21:45;17.27;;;13.85;;
67227;SDS011;54139;42.616;23.748;2023-03-04T09:24:10;25.30;;;13.63;;
67227;SDS011;54139;42.616;23.748;2023-03-04T09:26:36;14.68;;;12.98;;
67227;SDS011;54139;42.616;23.748;2023-03-04T09:29:02;18.92;;;14.93;;
67227;SDS011;54139;42.616;23.748;2023-03-04T09:31:28;16.52;;;13.73;;
67227;SDS011;54139;42.616;23.748;2023-03-04T09:33:54;18.60;;;13.02;;
67227;SDS011;54139;42.616;23.748;2023-03-04T09:36:20;16.27;;;13.05;;
67227;SDS011;54139;42.616;23.748;2023-03-04T09:38:46;15.57;;;12.68;;
67227;SDS011;54139;42.616;23.748;2023-03-04T09:41:19;17.45;;;13.45;;
67227;SDS011;54139;42.616;23.748;2023-03-04T09:43:47;14.40;;;12.95;;
67227;SDS011;54139;42.616;23.748;2023-03-04T09:46:15;18.27;;;14.18;;
67227;SDS011;54139;42.616;23.748;2023-03-04T09:48:44;16.25;;;11.90;;
67227;SDS011;54139;42.616;23.748;2023-03-04T09:54:09;14.25;;;11.45;;
67227;SDS011;54139;42.616;23.748;2023-03-04T09:56:37;15.77;;;14.00;;
67227;SDS011;54139;42.616;23.748;2023-03-04T10:04:17;19.67;;;13.75;;
67227;SDS011;54139;42.616;23.748;2023-03-04T10:07:06;16.30;;;14.35;;
67227;SDS011;54139;42.616;23.748;2023-03-04T10:12:11;18.85;;;15.05;;
67227;SDS011;54139;42.616;23.748;2023-03-04T10:17:20;16.25;;;14.05;;
67227;SDS011;54139;42.616;23.748;2023-03-04T10:22:46;16.98;;;14.93;;
67227;SDS011;54139;42.616;23.748;2023-03-04T10:25:26;16.95;;;14.35;;
67227;SDS011;54139;42.616;23.748;2023-03-04T10:28:00;17.52;;;14.68;;
67227;SDS011;54139;42.616;23.748;2023-03-04T10:33:12;21.13;;;16.50;;
67227;SDS011;54139;42.616;23.748;2023-03-04T10:35:39;22.55;;;17.73;;
67227;SDS011;54139;42.616;23.748;2023-03-04T10:38:08;19.05;;;15.93;;
67227;SDS011;54139;42.616;23.748;2023-03-04T10:40:38;17.48;;;14.90;;
67227;SDS011;54139;42.616;23.748;2023-03-04T10:43:04;18.17;;;15.18;;
67227;SDS011;54139;42.616;23.748;2023-03-04T10:45:32;21.67;;;15.60;;
67227;SDS011;54139;42.616;23.748;2023-03-04T10:48:03;19.35;;;15.23;;
67227;SDS011;54139;42.616;23.748;2023-03-04T10:50:29;17.45;;;15.05;;
67227;SDS011;54139;42.616;23.748;2023-03-04T10:52:54;17.83;;;14.45;;
67227;SDS011;54139;42.616;23.748;2023-03-04T10:55:23;18.40;;;14.55;;
67227;SDS011;54139;42.616;23.748;2023-03-04T10:57:53;21.35;;;16.25;;
67227;SDS011;54139;42.616;23.748;2023-03-04T11:02:50;18.55;;;15.52;;
67227;SDS011;54139;42.616;23.748;2023-03-04T11:05:22;20.02;;;15.27;;
67227;SDS011;54139;42.616;23.748;2023-03-04T11:07:50;20.33;;;15.88;;
67227;SDS011;54139;42.616;23.748;2023-03-04T11:10:29;17.73;;;14.43;;
67227;SDS011;54139;42.616;23.748;2023-03-04T11:13:12;20.08;;;14.63;;
67227;SDS011;54139;42.616;23.748;2023-03-04T11:18:33;18.20;;;15.05;;
67227;SDS011;54139;42.616;23.748;2023-03-04T11:21:07;15.80;;;14.07;;
67227;SDS011;54139;42.616;23.748;2023-03-04T11:23:44;20.02;;;16.52;;
67227;SDS011;54139;42.616;23.748;2023-03-04T11:26:15;18.30;;;14.68;;
67227;SDS011;54139;42.616;23.748;2023-03-04T11:28:48;17.33;;;15.18;;
67227;SDS011;54139;42.616;23.748;2023-03-04T11:31:19;21.17;;;16.10;;
67227;SDS011;54139;42.616;23.748;2023-03-04T11:33:55;15.75;;;14.15;;
67227;SDS011;54139;42.616;23.748;2023-03-04T11:40:00;18.83;;;15.63;;
67227;SDS011;54139;42.616;23.748;2023-03-04T11:44:56;15.18;;;13.68;;
67227;SDS011;54139;42.616;23.748;2023-03-04T11:47:25;18.25;;;14.23;;
67227;SDS011;54139;42.616;23.748;2023-03-04T12:00:43;15.55;;;12.52;;
67227;SDS011;54139;42.616;23.748;2023-03-04T12:08:32;16.10;;;14.18;;
67227;SDS011;54139;42.616;23.748;2023-03-04T12:13:37;17.35;;;14.40;;
67227;SDS011;54139;42.616;23.748;2023-03-04T12:29:57;16.42;;;13.40;;
67227;SDS011;54139;42.616;23.748;2023-03-04T12:32:35;17.60;;;13.52;;
67227;SDS011;54139;42.616;23.748;2023-03-04T12:42:56;18.05;;;14.98;;
67227;SDS011;54139;42.616;23.748;2023-03-04T12:55:45;19.33;;;13.38;;
67227;SDS011;54139;42.616;23.748;2023-03-04T12:58:21;15.90;;;12.80;;
67227;SDS011;54139;42.616;23.748;2023-03-04T13:08:40;16.25;;;13.95;;
67227;SDS011;54139;42.616;23.748;2023-03-04T13:19:45;15.13;;;13.60;;
67227;SDS011;54139;42.616;23.748;2023-03-04T13:43:38;15.18;;;13.27;;
67227;SDS011;54139;42.616;23.748;2023-03-04T13:51:16;19.02;;;13.25;;
67227;SDS011;54139;42.616;23.748;2023-03-04T14:01:31;17.73;;;14.05;;
67227;SDS011;54139;42.616;23.748;2023-03-04T14:04:20;20.92;;;15.50;;
67227;SDS011;54139;42.616;23.748;2023-03-04T14:06:49;21.48;;;15.30;;
67227;SDS011;54139;42.616;23.748;2023-03-04T14:09:19;18.55;;;16.40;;
67227;SDS011;54139;42.616;23.748;2023-03-04T14:11:46;23.15;;;17.15;;
67227;SDS011;54139;42.616;23.748;2023-03-04T14:14:13;21.38;;;17.48;;
67227;SDS011;54139;42.616;23.748;2023-03-04T14:16:45;21.38;;;17.20;;
67227;SDS011;54139;42.616;23.748;2023-03-04T14:19:24;19.33;;;17.30;;
67227;SDS011;54139;42.616;23.748;2023-03-04T14:21:52;23.58;;;17.98;;
67227;SDS011;54139;42.616;23.748;2023-03-04T14:24:18;20.50;;;16.85;;
67227;SDS011;54139;42.616;23.748;2023-03-04T14:26:45;20.70;;;17.05;;
67227;SDS011;54139;42.616;23.748;2023-03-04T14:31:53;21.45;;;16.55;;
67227;SDS011;54139;42.616;23.748;2023-03-04T14:34:27;19.95;;;16.90;;
67227;SDS011;54139;42.616;23.748;2023-03-04T14:36:56;20.67;;;16.48;;
67227;SDS011;54139;42.616;23.748;2023-03-04T14:39:23;18.63;;;15.80;;
67227;SDS011;54139;42.616;23.748;2023-03-04T14:41:51;19.33;;;16.80;;
67227;SDS011;54139;42.616;23.748;2023-03-04T14:47:11;17.97;;;16.07;;
67227;SDS011;54139;42.616;23.748;2023-03-04T14:49:45;21.42;;;15.90;;
67227;SDS011;54139;42.616;23.748;2023-03-04T14:54:58;19.63;;;15.70;;
67227;SDS011;54139;42.616;23.748;2023-03-04T14:57:41;22.20;;;18.13;;
67227;SDS011;54139;42.616;23.748;2023-03-04T15:02:54;22.30;;;18.45;;
67227;SDS011;54139;42.616;23.748;2023-03-04T15:05:31;21.88;;;18.88;;
67227;SDS011;54139;42.616;23.748;2023-03-04T15:07:58;23.90;;;18.45;;
67227;SDS011;54139;42.616;23.748;2023-03-04T15:10:30;19.45;;;17.00;;
67227;SDS011;54139;42.616;23.748;2023-03-04T15:12:58;22.25;;;18.25;;
67227;SDS011;54139;42.616;23.748;2023-03-04T15:15:29;22.45;;;17.52;;
67227;SDS011;54139;42.616;23.748;2023-03-04T15:21:02;20.58;;;17.50;;
67227;SDS011;54139;42.616;23.748;2023-03-04T15:23:30;22.00;;;18.50;;
67227;SDS011;54139;42.616;23.748;2023-03-04T15:25:57;30.17;;;17.42;;
67227;SDS011;54139;42.616;23.748;2023-03-04T15:28:24;21.90;;;17.40;;
67227;SDS011;54139;42.616;23.748;2023-03-04T15:30:51;21.70;;;17.65;;
67227;SDS011;54139;42.616;23.748;2023-03-04T15:33:17;20.30;;;17.38;;
67227;SDS011;54139;42.616;23.748;2023-03-04T15:35:53;21.15;;;17.33;;
67227;SDS011;54139;42.616;23.748;2023-03-04T15:38:20;25.52;;;18.95;;
67227;SDS011;54139;42.616;23.748;2023-03-04T15:40:46;23.88;;;20.25;;
67227;SDS011;54139;42.616;23.748;2023-03-04T15:43:16;23.20;;;19.63;;
67227;SDS011;54139;42.616;23.748;2023-03-04T15:45:43;27.02;;;20.50;;
67227;SDS011;54139;42.616;23.748;2023-03-04T15:48:10;27.95;;;19.60;;
67227;SDS011;54139;42.616;23.748;2023-03-04T15:50:42;29.52;;;20.58;;
67227;SDS011;54139;42.616;23.748;2023-03-04T15:53:38;25.08;;;20.05;;
67227;SDS011;54139;42.616;23.748;2023-03-04T15:56:07;29.98;;;18.45;;
67227;SDS011;54139;42.616;23.748;2023-03-04T15:58:35;26.55;;;20.38;;
67227;SDS011;54139;42.616;23.748;2023-03-04T16:01:01;32.15;;;21.88;;
67227;SDS011;54139;42.616;23.748;2023-03-04T16:03:26;26.55;;;20.63;;
67227;SDS011;54139;42.616;23.748;2023-03-04T16:05:52;27.50;;;20.92;;
67227;SDS011;54139;42.616;23.748;2023-03-04T16:08:19;26.33;;;20.27;;
67227;SDS011;54139;42.616;23.748;2023-03-04T16:10:46;26.92;;;18.40;;
67227;SDS011;54139;42.616;23.748;2023-03-04T16:13:16;23.08;;;16.25;;
67227;SDS011;54139;42.616;23.748;2023-03-04T16:15:43;22.98;;;16.20;;
67227;SDS011;54139;42.616;23.748;2023-03-04T16:18:09;20.23;;;16.88;;
67227;SDS011;54139;42.616;23.748;2023-03-04T16:20:36;21.05;;;17.75;;
67227;SDS011;54139;42.616;23.748;2023-03-04T16:23:02;20.15;;;16.05;;
67227;SDS011;54139;42.616;23.748;2023-03-04T16:25:29;27.77;;;18.42;;
67227;SDS011;54139;42.616;23.748;2023-03-04T16:27:55;23.85;;;18.02;;
67227;SDS011;54139;42.616;23.748;2023-03-04T16:30:24;23.23;;;19.10;;
67227;SDS011;54139;42.616;23.748;2023-03-04T16:32:50;25.42;;;19.42;;
67227;SDS011;54139;42.616;23.748;2023-03-04T16:35:16;25.02;;;19.20;;
67227;SDS011;54139;42.616;23.748;2023-03-04T16:37:42;26.75;;;18.65;;
67227;SDS011;54139;42.616;23.748;2023-03-04T16:40:10;59.50;;;38.50;;
67227;SDS011;54139;42.616;23.748;2023-03-04T16:42:38;47.90;;;33.42;;